Latest Coastal Weather Observations for Port Augusta

IDS60701

Issued at 1:51 am CST Sunday 6 September 2015 (issued every 10 minutes, with the page automatically refreshed every 10 minutes)

About coastal observations | Map of coastal stations | Coastal observations for SA | Marine services | Other Formats
Station Details ID: 018201 Name: PORT AUGUSTA AERO Lat: -32.51 Lon: 137.72 Height: 13.97 m
Data from the previous 72 hours. | See also: Recent months at Port Augusta
Date/Time
CST
Temp

°C
Wind Pressure Rain
since 9am
mm
Weather Cloud Vis
km
Sea
Height
m
Swell
Dir
 
Speed
knots
Gust
knots
hPa Trend Height
m
Period
s
Dir
06/01:30am 11.0 WSW 4 5 1018.3 - 0.0 - - 10 - - - -
06/01:00am 10.8 WSW 6 7 1018.7 - 0.0 - - 10 - - - -
06/12:30am 11.1 ESE 3 4 1018.7 - 0.0 - - 10 - - - -
06/12:00am 11.4 SE 3 4 1018.9 - 0.0 - - 10 - - - -
 
Date/Time
CST
Temp

°C
Wind Pressure Rain
since 9am
mm
Weather Cloud Vis
km
Sea
Height
m
Swell
Dir
 
Speed
knots
Gust
knots
hPa Trend Height
m
Period
s
Dir
05/11:30pm 11.3 SSE 3 4 1019.4 - 0.0 - - 10 - - - -
05/11:00pm 11.6 SSW 1 3 1020.3 - 0.0 - - 10 - - - -
05/10:30pm 10.9 SW 5 6 1020.8 - 0.0 - - 10 - - - -
05/10:00pm 11.6 SW 5 5 1020.9 - 0.0 - - 10 - - - -
05/09:30pm 12.7 SSW 4 5 1020.7 - 0.0 - - 10 - - - -
05/09:00pm 12.4 CALM 0 0 1020.7 - 0.0 - - 10 - - - -
05/08:30pm 11.9 CALM 0 0 1020.6 - 0.0 - - 10 - - - -
05/08:00pm 12.8 NNE 2 4 1020.4 - 0.0 - - 10 - - - -
05/07:30pm 12.8 NNE 7 8 1020.0 - 0.0 - - 10 - - - -
05/07:00pm 14.2 NNE 8 9 1019.9 - 0.0 - - 10 - - - -
05/06:30pm 15.2 NNE 8 9 1019.7 - 0.0 - - 10 - - - -
05/06:00pm 16.5 NNE 8 9 1019.4 - 0.0 - - 10 - - - -
05/05:30pm 17.9 N 8 10 1019.4 - 0.0 - - 10 - - - -
05/05:00pm 19.3 NNE 11 14 1018.9 - 0.0 - - 10 - - - -
05/04:30pm 20.3 N 10 17 1019.0 - 0.0 - - 10 - - - -
05/04:00pm 20.2 NNE 7 10 1019.1 - 0.0 - - 10 - - - -
05/03:30pm 20.4 NNE 10 11 1019.5 - 0.0 - - 10 - - - -
05/03:00pm 20.6 NE 6 10 1019.7 - 0.0 - - 10 - - - -
05/02:30pm 19.6 N 7 10 1020.4 - 0.0 - - 10 - - - -
05/02:00pm 20.1 N 7 14 1020.9 - 0.0 - Partly cloudy 10 - - - -
05/01:30pm 19.3 N 8 11 1021.1 - 0.0 - - 10 - - - -
05/01:00pm 20.1 NNW 10 12 1021.7 - 0.0 - - 10 - - - -
05/12:30pm 19.6 NNW 8 12 1022.5 - 0.0 - Partly cloudy 10 - - - -
05/12:00pm 18.7 NNW 7 13 1023.1 - 0.0 - - 10 - - - -
05/11:30am 19.0 N 7 10 1023.7 - 0.0 - - 10 - - - -
05/11:00am 18.3 NNW 6 9 1024.2 - 0.0 - - 10 - - - -
05/10:30am 16.8 NNW 6 9 1024.3 - 0.0 - - 10 - - - -
05/10:00am 16.0 N 5 7 1024.8 - 0.0 - - 10 - - - -
05/09:30am 14.7 NE 3 4 1025.1 - 0.0 - - 10 - - - -
05/09:00am 12.7 E 3 5 1025.3 - 0.0 - - 10 - - - -
05/08:30am 11.2 ESE 3 4 1025.4 - 0.0 - - 10 - - - -
05/08:00am 9.1 ESE 3 4 1025.1 - 0.0 - - 10 - - - -
05/07:30am 6.6 CALM 0 1 1024.8 - 0.0 - - 10 - - - -
05/07:00am 3.8 SW 4 5 1024.6 - 0.0 - - 10 - - - -
05/06:30am 3.8 SW 3 4 1024.3 - 0.0 - - 10 - - - -
05/06:00am 4.2 SW 4 5 1024.0 - 0.0 - - 10 - - - -
05/05:30am 4.1 SW 3 4 1024.0 - 0.0 - - 10 - - - -
05/05:00am 4.4 WSW 3 4 1023.6 - 0.0 - - 10 - - - -
05/04:30am 4.0 SW 4 5 1023.3 - 0.0 - - 10 - - - -
05/04:00am 4.5 SW 2 4 1023.4 - 0.0 - - 10 - - - -
05/03:30am 4.9 SE 3 4 1023.4 - 0.0 - - 10 - - - -
05/03:00am 5.1 E 4 5 1023.4 - 0.0 - - 10 - - - -
05/02:30am 5.8 SE 4 6 1024.1 - 0.0 - - 10 - - - -
05/02:00am 5.5 ESE 3 6 1024.3 - 0.0 - - 10 - - - -
05/01:30am 5.9 S 4 4 1024.7 - 0.0 - - 10 - - - -
05/01:00am 6.9 WSW 3 5 1025.1 - 0.0 - - 10 - - - -
05/12:30am 8.1 NNW 1 4 1025.1 - 0.0 - - 10 - - - -
05/12:00am 8.0 NNE 3 4 1025.2 - 0.0 - - 10 - - - -
 
Date/Time
CST
Temp

°C
Wind Pressure Rain
since 9am
mm
Weather Cloud Vis
km
Sea
Height
m
Swell
Dir
 
Speed
knots
Gust
knots
hPa Trend Height
m
Period
s
Dir
04/11:30pm 8.9 ENE 2 3 1025.4 - 0.0 - - 10 - - - -
04/11:00pm 10.5 SE 7 9 1025.7 - 0.0 - - 10 - - - -
04/10:30pm 10.8 SE 11 15 1026.0 - 0.0 - - 10 - - - -
04/10:00pm 11.1 SSE 11 14 1026.1 - 0.0 - - 10 - - - -
04/09:30pm 11.3 SSE 12 14 1026.0 - 0.0 - - 10 - - - -
04/09:00pm 11.6 SSE 13 16 1025.7 - 0.0 - - 10 - - - -
04/08:30pm 11.8 SSE 14 19 1025.4 - 0.0 - - 10 - - - -
04/08:00pm 11.7 SSE 13 17 1025.2 - 0.0 - - 10 - - - -
04/07:30pm 11.8 SE 11 13 1025.1 - 0.0 - - 10 - - - -
04/07:00pm 12.3 SE 11 14 1025.0 - 0.0 - - 10 - - - -
04/06:30pm 12.7 SE 12 14 1024.9 - 0.0 - - 10 - - - -
04/06:00pm 13.4 SE 10 14 1024.6 - 0.0 - - 10 - - - -
04/05:30pm 14.3 SSE 13 16 1024.7 - 0.0 - - 10 - - - -
04/05:00pm 14.9 SE 12 15 1024.5 - 0.0 - - 10 - - - -
04/04:30pm 15.6 SE 13 16 1024.2 - 0.0 - - 10 - - - -
04/04:00pm 16.0 SE 12 16 1024.3 - 0.0 - Partly cloudy 10 - - - -
04/03:30pm 16.6 SE 10 13 1024.3 - 0.0 - Partly cloudy 10 - - - -
04/03:00pm 15.7 SE 11 14 1024.4 - 0.0 - Partly cloudy 10 - - - -
04/02:30pm 16.3 SE 9 12 1024.6 - 0.0 - Partly cloudy 10 - - - -
04/02:00pm 16.4 ESE 7 11 1024.9 - 0.0 - Partly cloudy 10 - - - -
04/01:30pm 16.1 SSE 8 10 1025.1 - 0.0 - Cloudy 10 - - - -
04/01:00pm 16.5 ESE 6 10 1025.5 - 0.0 - Partly cloudy 10 - - - -
04/12:30pm 16.9 SSE 4 8 1026.1 - 0.0 - Partly cloudy 10 - - - -
04/12:00pm 16.1 SE 6 9 1026.4 - 0.0 - - 10 - - - -
04/11:30am 15.5 SE 7 11 1026.8 - 0.0 - - 10 - - - -
04/11:00am 15.3 SE 9 13 1027.2 - 0.0 - - 10 - - - -
04/10:30am 15.0 SE 11 15 1027.5 - 0.0 - - 10 - - - -
04/10:00am 14.1 SSE 14 18 1027.7 - 0.0 - - 10 - - - -
04/09:30am 13.4 SE 13 16 1027.9 - 0.0 - - 10 - - - -
04/09:00am 13.0 SSE 13 17 1028.0 - 0.0 - - 10 - - - -
04/08:30am 12.4 SSE 13 16 1027.9 - 0.0 - - 10 - - - -
04/08:00am 11.5 SSE 6 9 1028.2 - 0.0 - - 10 - - - -
04/07:30am 10.3 SSW 4 7 1028.1 - 0.0 - - 10 - - - -
04/07:00am 8.8 W 3 5 1027.5 - 0.0 - - 10 - - - -
04/06:30am 8.2 WNW 3 5 1026.9 - 0.0 - - 10 - - - -
04/06:00am 8.6 E 3 4 1026.4 - 0.0 - - 10 - - - -
04/05:30am 9.1 SSE 4 6 1026.4 - 0.0 - - 10 - - - -
04/05:00am 9.3 S 5 7 1026.4 - 0.0 - - 10 - - - -
04/04:30am 9.4 SE 4 5 1026.1 - 0.0 - Partly cloudy 10 - - - -
04/04:00am 10.1 SSE 8 10 1025.8 - 0.0 - Partly cloudy 10 - - - -
04/03:52am 10.2 SSE 8 10 1025.8 - 0.0 - Partly cloudy 10 - - - -
04/03:30am 10.5 SSE 8 10 1025.9 - 0.0 - Partly cloudy 10 - - - -
04/03:09am 10.6 SSE 8 11 1026.2 - 0.0 - Partly cloudy 10 - - - -
04/03:00am 10.2 S 7 9 1026.2 - 0.0 - Cloudy 10 - - - -
04/02:30am 10.3 S 7 9 1026.4 - 0.0 - Cloudy 10 - - - -
04/02:00am 9.3 S 6 7 1026.5 - 0.0 - Partly cloudy 10 - - - -
04/01:30am 10.1 S 8 9 1026.5 - 0.0 - - 10 - - - -
04/01:00am 10.0 S 8 9 1026.6 - 0.0 - - 10 - - - -
04/12:30am 11.3 SSW 9 11 1026.7 - 0.0 - - 10 - - - -
04/12:00am 11.0 SSW 7 10 1026.8 - 0.0 - - 10 - - - -
 
Date/Time
CST
Temp

°C
Wind Pressure Rain
since 9am
mm
Weather Cloud Vis
km
Sea
Height
m
Swell
Dir
 
Speed
knots
Gust
knots
hPa Trend Height
m
Period
s
Dir
03/11:30pm 11.4 S 8 10 1026.7 - 0.0 - Partly cloudy 10 - - - -
03/11:00pm 12.5 SSE 4 7 1026.9 - 0.0 - Partly cloudy 10 - - - -
03/10:30pm 13.0 S 10 13 1026.8 - 0.0 - Partly cloudy 10 - - - -
03/10:00pm 13.3 S 11 15 1026.8 - 0.0 - Partly cloudy 10 - - - -
03/09:30pm 13.1 SSW 8 10 1026.5 - 0.0 - Partly cloudy 10 - - - -
03/09:00pm 13.1 SSW 10 13 1026.1 - 0.0 - Cloudy 10 - - - -
03/08:30pm 13.5 S 11 15 1025.8 - 0.0 - Cloudy 10 - - - -
03/08:00pm 13.6 S 13 18 1025.6 - 0.0 - Cloudy 10 - - - -
03/07:30pm 13.6 S 12 15 1025.2 - 0.0 - Cloudy 10 - - - -
03/07:00pm 13.7 S 12 16 1024.9 - 0.0 - Partly cloudy 10 - - - -
03/06:30pm 14.1 S 12 15 1024.7 - 0.0 - Partly cloudy 10 - - - -
03/06:00pm 14.7 S 12 15 1024.2 - 0.0 - Cloudy 10 - - - -
03/05:30pm 15.0 S 11 15 1023.9 - 0.0 - Cloudy 10 - - - -
03/05:00pm 15.6 S 14 17 1023.5 - 0.0 - Partly cloudy 10 - - - -
03/04:30pm 16.0 S 13 17 1023.2 - 0.0 - Partly cloudy 10 - - - -
03/04:00pm 16.3 S 15 19 1022.8 - 0.0 - Partly cloudy 10 - - - -
03/03:30pm 16.6 S 15 19 1022.7 - 0.0 - Partly cloudy 10 - - - -
03/03:00pm 17.0 S 16 21 1022.1 - 0.0 - Cloudy 10 - - - -
03/02:30pm 16.7 SSE 16 21 1022.0 - 0.0 - Partly cloudy 10 - - - -
03/02:00pm 16.8 S 15 20 1021.9 - 0.0 - Partly cloudy 10 - - - -
03/01:30pm 16.6 S 15 21 1022.0 - 0.0 - Partly cloudy 10 - - - -
03/01:00pm 16.5 SSE 16 21 1022.1 - 0.0 - Partly cloudy 10 - - - -
03/12:30pm 17.0 S 16 21 1022.3 - 0.0 - Partly cloudy 10 - - - -
03/12:00pm 16.6 SSE 18 23 1022.2 - 0.0 - Cloudy 10 - - - -
03/11:30am 16.8 SSE 16 24 1022.1 - 0.0 - Partly cloudy 10 - - - -
03/11:00am 16.8 S 17 22 1022.0 - 0.0 - Partly cloudy 10 - - - -
03/10:50am 16.3 S 16 21 1022.2 - 0.0 - Partly cloudy 10 - - - -
03/10:30am 14.7 S 17 22 1022.1 - 0.0 - Partly cloudy 10 - - - -
03/10:10am 14.3 S 16 25 1021.9 - 0.0 - Partly cloudy 10 - - - -
03/10:00am 14.1 SSW 12 15 1021.9 - 0.0 - Partly cloudy 10 - - - -
03/09:49am 13.5 SSW 12 15 1021.9 - 0.0 - Partly cloudy 10 - - - -
03/09:47am 13.5 SSW 12 15 1021.9 - 0.0 - Partly cloudy 10 - - - -
03/09:30am 12.7 SW 12 14 1021.8 - 0.0 - Partly cloudy 10 - - - -
03/09:19am 12.4 SW 12 15 1021.8 - 0.0 - Partly cloudy 10 - - - -
03/09:00am 12.2 SW 13 18 1021.3 - 3.6 - Cloudy 6 - - - -
03/08:45am 12.0 SW 12 16 1021.2 - 3.6 - Partly cloudy 6 - - - -
03/08:30am 12.1 SW 14 17 1021.1 - 3.4 - Partly cloudy 10 - - - -
03/08:00am 11.8 SW 8 11 1020.5 - 3.4 - Cloudy 10 - - - -
03/07:30am 10.9 SW 9 11 1020.0 - 3.4 - Cloudy 10 - - - -
03/07:00am 10.1 SW 8 14 1019.5 - 3.4 - Partly cloudy 10 - - - -
03/06:30am 10.1 SW 8 11 1018.7 - 3.4 - Partly cloudy 10 - - - -
03/06:00am 9.6 SW 8 10 1018.2 - 3.4 - Mostly clear 10 - - - -
03/05:30am 9.5 SW 7 11 1017.6 - 3.4 - - 10 - - - -
03/05:00am 10.2 SSW 10 12 1016.9 - 3.4 - Partly cloudy 10 - - - -
03/04:30am 10.8 SW 9 13 1016.6 - 3.4 - Partly cloudy 10 - - - -
03/04:21am 10.6 SW 12 15 1016.5 - 3.4 - Partly cloudy 10 - - - -
03/04:00am 10.9 SSW 11 13 1016.3 - 3.4 - Partly cloudy 10 - - - -
03/03:30am 10.9 SSW 12 16 1015.7 - 3.4 - Cloudy 10 - - - -
03/03:00am 10.9 WSW 9 12 1015.5 - 3.4 - Mostly cloudy 10 - - - -
03/02:30am 10.8 SW 7 11 1015.1 - 3.4 - Partly cloudy 10 - - - -
03/02:22am 10.9 SSW 9 13 1015.0 - 3.4 - Partly cloudy 10 - - - -
03/02:07am 11.1 SSW 10 14 1014.7 - 3.4 - Partly cloudy 10 - - - -
03/02:00am 11.2 SSW 10 14 1014.7 - 3.4 - Partly cloudy 10 - - - -

Other Formats:

Comma delimited format used in spreadsheet applications
http://www.bom.gov.au/fwo/IDS60701/IDS60701.95666.axf

JavaScript Object Notation format (JSON) in row-major order
http://www.bom.gov.au/fwo/IDS60701/IDS60701.95666.json